sensor_id;sensor_type;location;lat;lon;timestamp;pressure;altitude;pressure_sealevel;temperature;humidity
40838;BME280;29632;49.168;9.848;2023-01-08T00:01:54;96268.75;;;10.11;48.35
40838;BME280;29632;49.168;9.848;2023-01-08T00:04:19;96265.34;;;10.10;48.48
40838;BME280;29632;49.168;9.848;2023-01-08T00:06:45;96264.34;;;10.11;47.99
40838;BME280;29632;49.168;9.848;2023-01-08T00:09:11;96256.09;;;10.16;48.00
40838;BME280;29632;49.168;9.848;2023-01-08T00:11:37;96257.06;;;10.15;48.23
40838;BME280;29632;49.168;9.848;2023-01-08T00:14:02;96254.47;;;10.15;48.25
40838;BME280;29632;49.168;9.848;2023-01-08T00:16:28;96250.25;;;10.14;48.10
40838;BME280;29632;49.168;9.848;2023-01-08T00:18:54;96251.06;;;10.14;48.42
40838;BME280;29632;49.168;9.848;2023-01-08T00:21:19;96243.09;;;10.16;48.08
40838;BME280;29632;49.168;9.848;2023-01-08T00:23:45;96236.75;;;10.18;48.12
40838;BME280;29632;49.168;9.848;2023-01-08T00:26:11;96240.03;;;10.20;48.30
40838;BME280;29632;49.168;9.848;2023-01-08T00:28:38;96250.94;;;10.24;48.39
40838;BME280;29632;49.168;9.848;2023-01-08T00:31:08;96241.50;;;10.23;48.23
40838;BME280;29632;49.168;9.848;2023-01-08T00:33:34;96250.25;;;10.22;48.17
40838;BME280;29632;49.168;9.848;2023-01-08T00:36:06;96236.59;;;10.20;48.07
40838;BME280;29632;49.168;9.848;2023-01-08T00:38:32;96231.72;;;10.17;48.49
40838;BME280;29632;49.168;9.848;2023-01-08T00:40:57;96219.38;;;10.19;48.50
40838;BME280;29632;49.168;9.848;2023-01-08T00:43:24;96218.38;;;10.20;48.06
40838;BME280;29632;49.168;9.848;2023-01-08T00:45:50;96214.97;;;10.19;48.17
40838;BME280;29632;49.168;9.848;2023-01-08T00:48:19;96213.50;;;10.17;48.08
40838;BME280;29632;49.168;9.848;2023-01-08T00:50:47;96205.00;;;10.15;48.49
40838;BME280;29632;49.168;9.848;2023-01-08T00:53:13;96193.28;;;10.11;48.32
40838;BME280;29632;49.168;9.848;2023-01-08T00:55:39;96202.41;;;10.07;48.06
40838;BME280;29632;49.168;9.848;2023-01-08T00:58:04;96207.91;;;10.04;48.11
40838;BME280;29632;49.168;9.848;2023-01-08T01:00:30;96195.19;;;10.00;48.62
40838;BME280;29632;49.168;9.848;2023-01-08T01:02:56;96198.78;;;9.99;48.20
40838;BME280;29632;49.168;9.848;2023-01-08T01:05:21;96194.38;;;10.00;48.50
40838;BME280;29632;49.168;9.848;2023-01-08T01:07:47;96201.38;;;9.99;48.46
40838;BME280;29632;49.168;9.848;2023-01-08T01:10:14;96185.25;;;9.96;48.09
40838;BME280;29632;49.168;9.848;2023-01-08T01:12:40;96182.63;;;9.96;48.50
40838;BME280;29632;49.168;9.848;2023-01-08T01:15:07;96186.88;;;9.97;48.10
40838;BME280;29632;49.168;9.848;2023-01-08T01:17:33;96178.94;;;9.98;48.19
40838;BME280;29632;49.168;9.848;2023-01-08T01:19:59;96176.84;;;10.02;48.28
40838;BME280;29632;49.168;9.848;2023-01-08T01:22:25;96173.28;;;10.03;48.38
40838;BME280;29632;49.168;9.848;2023-01-08T01:24:51;96168.06;;;10.03;48.32
40838;BME280;29632;49.168;9.848;2023-01-08T01:27:16;96188.03;;;10.02;48.22
40838;BME280;29632;49.168;9.848;2023-01-08T01:29:42;96185.44;;;10.02;48.46
40838;BME280;29632;49.168;9.848;2023-01-08T01:32:09;96190.97;;;9.99;48.39
40838;BME280;29632;49.168;9.848;2023-01-08T01:34:35;96196.34;;;9.98;48.17
40838;BME280;29632;49.168;9.848;2023-01-08T01:37:01;96197.94;;;9.99;48.18
40838;BME280;29632;49.168;9.848;2023-01-08T01:39:26;96195.19;;;10.00;48.37
40838;BME280;29632;49.168;9.848;2023-01-08T01:41:52;96181.22;;;10.01;48.16
40838;BME280;29632;49.168;9.848;2023-01-08T01:44:43;96183.69;;;10.03;48.39
40838;BME280;29632;49.168;9.848;2023-01-08T01:47:48;96174.88;;;10.04;48.21
40838;BME280;29632;49.168;9.848;2023-01-08T01:50:13;96178.97;;;10.07;48.26
40838;BME280;29632;49.168;9.848;2023-01-08T01:53:01;96185.00;;;10.07;48.32
40838;BME280;29632;49.168;9.848;2023-01-08T01:55:27;96182.38;;;10.07;48.14
40838;BME280;29632;49.168;9.848;2023-01-08T01:58:04;96192.78;;;10.07;48.21
40838;BME280;29632;49.168;9.848;2023-01-08T02:00:32;96203.19;;;10.07;48.23
40838;BME280;29632;49.168;9.848;2023-01-08T02:02:58;96202.41;;;10.07;48.39
40838;BME280;29632;49.168;9.848;2023-01-08T02:05:25;96184.19;;;10.07;48.11
40838;BME280;29632;49.168;9.848;2023-01-08T02:07:56;96182.22;;;10.09;48.31
40838;BME280;29632;49.168;9.848;2023-01-08T02:10:36;96187.13;;;10.12;48.39
40838;BME280;29632;49.168;9.848;2023-01-08T02:13:07;96187.50;;;10.17;48.35
40838;BME280;29632;49.168;9.848;2023-01-08T02:15:57;96186.34;;;10.19;48.23
40838;BME280;29632;49.168;9.848;2023-01-08T02:21:32;96175.00;;;10.29;48.18
40838;BME280;29632;49.168;9.848;2023-01-08T02:24:22;96168.56;;;10.33;48.35
40838;BME280;29632;49.168;9.848;2023-01-08T02:26:54;96166.75;;;10.33;48.26
40838;BME280;29632;49.168;9.848;2023-01-08T02:29:22;96151.78;;;10.35;48.36
40838;BME280;29632;49.168;9.848;2023-01-08T02:31:50;96154.38;;;10.35;47.87
40838;BME280;29632;49.168;9.848;2023-01-08T02:34:16;96143.66;;;10.38;48.17
40838;BME280;29632;49.168;9.848;2023-01-08T02:36:50;96135.72;;;10.40;48.31
40838;BME280;29632;49.168;9.848;2023-01-08T02:39:38;96141.41;;;10.44;48.08
40838;BME280;29632;49.168;9.848;2023-01-08T02:47:41;96124.63;;;10.46;47.84
40838;BME280;29632;49.168;9.848;2023-01-08T02:50:40;96130.00;;;10.45;47.80
40838;BME280;29632;49.168;9.848;2023-01-08T02:53:15;96114.72;;;10.42;48.03
40838;BME280;29632;49.168;9.848;2023-01-08T02:55:45;96101.72;;;10.42;47.96
40838;BME280;29632;49.168;9.848;2023-01-08T02:58:13;96105.28;;;10.41;48.00
40838;BME280;29632;49.168;9.848;2023-01-08T03:00:39;96107.06;;;10.40;48.16
40838;BME280;29632;49.168;9.848;2023-01-08T03:03:09;96093.22;;;10.39;48.14
40838;BME280;29632;49.168;9.848;2023-01-08T03:05:35;96097.47;;;10.41;47.88
40838;BME280;29632;49.168;9.848;2023-01-08T03:08:03;96082.66;;;10.41;47.92
40838;BME280;29632;49.168;9.848;2023-01-08T03:10:30;96085.75;;;10.45;47.80
40838;BME280;29632;49.168;9.848;2023-01-08T03:13:01;96095.19;;;10.46;47.65
40838;BME280;29632;49.168;9.848;2023-01-08T03:15:33;96081.53;;;10.44;47.80
40838;BME280;29632;49.168;9.848;2023-01-08T03:18:03;96079.75;;;10.44;47.74
40838;BME280;29632;49.168;9.848;2023-01-08T03:20:31;96078.13;;;10.43;47.74
40838;BME280;29632;49.168;9.848;2023-01-08T03:22:59;96076.63;;;10.41;47.77
40838;BME280;29632;49.168;9.848;2023-01-08T03:25:27;96079.91;;;10.43;48.01
40838;BME280;29632;49.168;9.848;2023-01-08T03:27:58;96080.72;;;10.43;48.12
40838;BME280;29632;49.168;9.848;2023-01-08T03:30:25;96071.13;;;10.44;47.98
40838;BME280;29632;49.168;9.848;2023-01-08T03:32:53;96076.16;;;10.45;48.29
40838;BME280;29632;49.168;9.848;2023-01-08T03:35:21;96074.22;;;10.47;47.89
40838;BME280;29632;49.168;9.848;2023-01-08T03:37:56;96074.06;;;10.49;47.93
40838;BME280;29632;49.168;9.848;2023-01-08T03:40:25;96078.94;;;10.52;47.92
40838;BME280;29632;49.168;9.848;2023-01-08T03:42:53;96079.59;;;10.54;47.81
40838;BME280;29632;49.168;9.848;2023-01-08T03:45:20;96061.88;;;10.57;47.85
40838;BME280;29632;49.168;9.848;2023-01-08T03:47:47;96063.97;;;10.62;47.86
40838;BME280;29632;49.168;9.848;2023-01-08T03:50:15;96063.34;;;10.68;47.86
40838;BME280;29632;49.168;9.848;2023-01-08T03:52:42;96060.75;;;10.76;47.97
40838;BME280;29632;49.168;9.848;2023-01-08T03:55:07;96063.69;;;10.82;47.88
40838;BME280;29632;49.168;9.848;2023-01-08T03:57:33;96064.81;;;10.87;48.03
40838;BME280;29632;49.168;9.848;2023-01-08T03:59:59;96062.69;;;10.91;47.63
40838;BME280;29632;49.168;9.848;2023-01-08T04:02:24;96052.13;;;10.92;47.80
40838;BME280;29632;49.168;9.848;2023-01-08T04:04:50;96047.38;;;10.96;47.58
40838;BME280;29632;49.168;9.848;2023-01-08T04:07:16;96045.41;;;10.98;47.45
40838;BME280;29632;49.168;9.848;2023-01-08T04:09:41;96041.66;;;11.01;47.63
40838;BME280;29632;49.168;9.848;2023-01-08T04:12:07;96036.13;;;11.04;47.64
40838;BME280;29632;49.168;9.848;2023-01-08T04:14:32;96033.34;;;11.05;47.75
40838;BME280;29632;49.168;9.848;2023-01-08T04:16:58;96032.41;;;11.06;47.43
40838;BME280;29632;49.168;9.848;2023-01-08T04:19:24;96026.19;;;11.07;47.46
40838;BME280;29632;49.168;9.848;2023-01-08T04:21:50;96017.41;;;11.08;47.44
40838;BME280;29632;49.168;9.848;2023-01-08T04:24:16;96015.28;;;11.12;47.40
40838;BME280;29632;49.168;9.848;2023-01-08T04:26:42;96022.59;;;11.17;47.68
40838;BME280;29632;49.168;9.848;2023-01-08T04:29:07;96010.88;;;11.21;47.76
40838;BME280;29632;49.168;9.848;2023-01-08T04:31:33;96006.13;;;11.24;47.76
40838;BME280;29632;49.168;9.848;2023-01-08T04:33:59;96022.09;;;11.29;47.52
40838;BME280;29632;49.168;9.848;2023-01-08T04:36:24;96021.75;;;11.32;47.44
40838;BME280;29632;49.168;9.848;2023-01-08T04:38:50;96030.38;;;11.33;47.71
40838;BME280;29632;49.168;9.848;2023-01-08T04:41:15;96022.56;;;11.33;47.32
40838;BME280;29632;49.168;9.848;2023-01-08T04:43:42;96026.97;;;11.32;47.45
40838;BME280;29632;49.168;9.848;2023-01-08T04:46:08;96022.56;;;11.33;47.19
40838;BME280;29632;49.168;9.848;2023-01-08T04:48:34;96017.34;;;11.33;47.73
40838;BME280;29632;49.168;9.848;2023-01-08T04:51:01;96019.78;;;11.34;47.63
40838;BME280;29632;49.168;9.848;2023-01-08T04:53:27;96013.56;;;11.36;47.58
40838;BME280;29632;49.168;9.848;2023-01-08T04:55:53;96010.47;;;11.40;47.64
40838;BME280;29632;49.168;9.848;2023-01-08T04:58:19;96004.28;;;11.41;47.53
40838;BME280;29632;49.168;9.848;2023-01-08T05:00:45;95996.94;;;11.45;47.61
40838;BME280;29632;49.168;9.848;2023-01-08T05:03:10;96000.84;;;11.49;47.59
40838;BME280;29632;49.168;9.848;2023-01-08T05:05:36;95991.69;;;11.53;47.68
40838;BME280;29632;49.168;9.848;2023-01-08T05:08:03;95997.38;;;11.57;47.28
40838;BME280;29632;49.168;9.848;2023-01-08T05:10:28;95993.63;;;11.59;47.23
40838;BME280;29632;49.168;9.848;2023-01-08T05:12:58;95987.25;;;11.62;47.48
40838;BME280;29632;49.168;9.848;2023-01-08T05:15:24;95983.34;;;11.66;47.37
40838;BME280;29632;49.168;9.848;2023-01-08T05:17:57;95981.84;;;11.71;47.60
40838;BME280;29632;49.168;9.848;2023-01-08T05:20:23;95987.34;;;11.77;47.45
40838;BME280;29632;49.168;9.848;2023-01-08T05:22:48;95985.84;;;11.82;47.49
40838;BME280;29632;49.168;9.848;2023-01-08T05:25:14;95991.53;;;11.86;47.50
40838;BME280;29632;49.168;9.848;2023-01-08T05:27:40;96000.69;;;11.90;47.56
40838;BME280;29632;49.168;9.848;2023-01-08T05:30:06;96016.84;;;11.85;47.29
40838;BME280;29632;49.168;9.848;2023-01-08T05:32:32;96010.84;;;11.77;47.47
40838;BME280;29632;49.168;9.848;2023-01-08T05:34:57;96011.19;;;11.65;47.67
40838;BME280;29632;49.168;9.848;2023-01-08T05:37:23;96023.28;;;11.58;47.60
40838;BME280;29632;49.168;9.848;2023-01-08T05:39:49;96019.72;;;11.51;47.91
40838;BME280;29632;49.168;9.848;2023-01-08T05:42:14;96022.66;;;11.48;47.70
40838;BME280;29632;49.168;9.848;2023-01-08T05:44:40;96024.78;;;11.44;47.78
40838;BME280;29632;49.168;9.848;2023-01-08T05:47:05;96028.41;;;11.43;47.88
40838;BME280;29632;49.168;9.848;2023-01-08T05:49:31;96020.25;;;11.46;47.74
40838;BME280;29632;49.168;9.848;2023-01-08T05:51:56;96020.06;;;11.48;47.71
40838;BME280;29632;49.168;9.848;2023-01-08T05:54:22;96030.50;;;11.48;47.54
40838;BME280;29632;49.168;9.848;2023-01-08T05:56:48;96025.28;;;11.48;47.76
40838;BME280;29632;49.168;9.848;2023-01-08T05:59:13;96026.59;;;11.44;47.60
40838;BME280;29632;49.168;9.848;2023-01-08T06:01:39;96017.97;;;11.43;47.98
40838;BME280;29632;49.168;9.848;2023-01-08T06:04:05;96007.72;;;11.42;47.84
40838;BME280;29632;49.168;9.848;2023-01-08T06:06:30;96014.72;;;11.41;47.96
40838;BME280;29632;49.168;9.848;2023-01-08T06:08:56;96007.06;;;11.40;48.24
40838;BME280;29632;49.168;9.848;2023-01-08T06:11:21;96016.16;;;11.44;48.03
40838;BME280;29632;49.168;9.848;2023-01-08T06:13:47;96026.09;;;11.48;47.90
40838;BME280;29632;49.168;9.848;2023-01-08T06:16:13;96012.75;;;11.51;47.70
40838;BME280;29632;49.168;9.848;2023-01-08T06:18:39;96010.94;;;11.52;47.92
40838;BME280;29632;49.168;9.848;2023-01-08T06:21:05;96020.03;;;11.56;47.73
40838;BME280;29632;49.168;9.848;2023-01-08T06:23:31;96019.53;;;11.61;47.70
40838;BME280;29632;49.168;9.848;2023-01-08T06:25:58;96020.81;;;11.65;47.48
40838;BME280;29632;49.168;9.848;2023-01-08T06:28:24;96017.88;;;11.68;47.63
40838;BME280;29632;49.168;9.848;2023-01-08T06:30:51;96023.56;;;11.71;47.48
40838;BME280;29632;49.168;9.848;2023-01-08T06:33:17;96016.25;;;11.67;47.61
40838;BME280;29632;49.168;9.848;2023-01-08T06:35:43;96028.34;;;11.60;47.68
40838;BME280;29632;49.168;9.848;2023-01-08T06:38:09;96022.50;;;11.49;48.03
40838;BME280;29632;49.168;9.848;2023-01-08T06:40:34;96015.69;;;11.40;48.06
40838;BME280;29632;49.168;9.848;2023-01-08T06:43:04;96007.56;;;11.35;48.46
40838;BME280;29632;49.168;9.848;2023-01-08T06:45:30;96006.28;;;11.31;48.29
40838;BME280;29632;49.168;9.848;2023-01-08T06:48:00;96014.91;;;11.31;48.56
40838;BME280;29632;49.168;9.848;2023-01-08T06:50:27;96009.84;;;11.30;48.50
40838;BME280;29632;49.168;9.848;2023-01-08T06:52:53;96013.25;;;11.30;48.80
40838;BME280;29632;49.168;9.848;2023-01-08T06:55:19;96006.13;;;11.32;48.62
40838;BME280;29632;49.168;9.848;2023-01-08T06:57:45;96006.59;;;11.36;48.50
40838;BME280;29632;49.168;9.848;2023-01-08T07:00:11;96000.06;;;11.32;48.79
40838;BME280;29632;49.168;9.848;2023-01-08T07:02:37;96010.38;;;11.25;49.05
40838;BME280;29632;49.168;9.848;2023-01-08T07:05:03;96020.97;;;11.24;48.93
40838;BME280;29632;49.168;9.848;2023-01-08T07:07:28;96021.94;;;11.23;48.91
40838;BME280;29632;49.168;9.848;2023-01-08T07:09:54;96026.00;;;11.25;48.97
40838;BME280;29632;49.168;9.848;2023-01-08T07:12:20;96026.81;;;11.26;49.05
40838;BME280;29632;49.168;9.848;2023-01-08T07:14:45;96031.22;;;11.25;49.05
40838;BME280;29632;49.168;9.848;2023-01-08T07:17:11;96049.63;;;11.24;49.22
40838;BME280;29632;49.168;9.848;2023-01-08T07:19:36;96027.31;;;11.21;49.49
40838;BME280;29632;49.168;9.848;2023-01-08T07:22:02;96035.13;;;11.21;49.54
40838;BME280;29632;49.168;9.848;2023-01-08T07:24:28;96029.91;;;11.21;49.52
40838;BME280;29632;49.168;9.848;2023-01-08T07:26:53;96028.94;;;11.22;49.59
40838;BME280;29632;49.168;9.848;2023-01-08T07:29:19;96032.34;;;11.23;49.65
40838;BME280;29632;49.168;9.848;2023-01-08T07:31:45;96034.31;;;11.21;49.92
40838;BME280;29632;49.168;9.848;2023-01-08T07:34:10;96028.09;;;11.22;49.87
40838;BME280;29632;49.168;9.848;2023-01-08T07:36:36;96011.50;;;11.23;49.92
40838;BME280;29632;49.168;9.848;2023-01-08T07:39:02;96013.78;;;11.26;49.91
40838;BME280;29632;49.168;9.848;2023-01-08T07:41:27;96011.00;;;11.27;49.78
40838;BME280;29632;49.168;9.848;2023-01-08T07:43:53;96012.63;;;11.28;49.69
40838;BME280;29632;49.168;9.848;2023-01-08T07:46:19;96015.06;;;11.30;49.91
40838;BME280;29632;49.168;9.848;2023-01-08T07:48:44;96019.78;;;11.34;50.02
40838;BME280;29632;49.168;9.848;2023-01-08T07:51:10;96035.28;;;11.36;49.81
40838;BME280;29632;49.168;9.848;2023-01-08T07:53:36;96035.09;;;11.38;49.87
40838;BME280;29632;49.168;9.848;2023-01-08T07:56:10;96032.81;;;11.34;50.02
40838;BME280;29632;49.168;9.848;2023-01-08T07:58:36;96033.31;;;11.30;50.27
40838;BME280;29632;49.168;9.848;2023-01-08T08:01:03;96031.88;;;11.27;50.45
40838;BME280;29632;49.168;9.848;2023-01-08T08:03:28;96025.81;;;11.27;50.34
40838;BME280;29632;49.168;9.848;2023-01-08T08:05:54;96030.88;;;11.28;50.17
40838;BME280;29632;49.168;9.848;2023-01-08T08:08:20;96025.34;;;11.31;50.54
40838;BME280;29632;49.168;9.848;2023-01-08T08:10:46;96019.63;;;11.36;49.93
40838;BME280;29632;49.168;9.848;2023-01-08T08:13:11;96027.09;;;11.39;50.33
40838;BME280;29632;49.168;9.848;2023-01-08T08:15:38;96023.34;;;11.42;50.33
40838;BME280;29632;49.168;9.848;2023-01-08T08:18:04;96026.59;;;11.44;50.53
40838;BME280;29632;49.168;9.848;2023-01-08T08:20:30;96034.25;;;11.45;50.38
40838;BME280;29632;49.168;9.848;2023-01-08T08:23:03;96033.09;;;11.48;50.46
40838;BME280;29632;49.168;9.848;2023-01-08T08:25:29;96027.38;;;11.52;50.37
40838;BME280;29632;49.168;9.848;2023-01-08T08:27:59;96028.88;;;11.55;50.30
40838;BME280;29632;49.168;9.848;2023-01-08T08:30:27;96021.38;;;11.52;50.56
40838;BME280;29632;49.168;9.848;2023-01-08T08:32:53;96021.38;;;11.52;50.45
40838;BME280;29632;49.168;9.848;2023-01-08T08:35:20;96023.97;;;11.52;50.48
40838;BME280;29632;49.168;9.848;2023-01-08T08:37:46;96023.34;;;11.50;50.59
40838;BME280;29632;49.168;9.848;2023-01-08T08:40:11;96014.84;;;11.48;50.43
40838;BME280;29632;49.168;9.848;2023-01-08T08:42:37;96016.97;;;11.44;50.64
40838;BME280;29632;49.168;9.848;2023-01-08T08:45:03;96018.78;;;11.44;50.78
40838;BME280;29632;49.168;9.848;2023-01-08T08:47:29;96015.84;;;11.47;50.81
40838;BME280;29632;49.168;9.848;2023-01-08T08:49:54;96007.22;;;11.46;50.63
40838;BME280;29632;49.168;9.848;2023-01-08T08:52:20;96005.41;;;11.47;50.66
40838;BME280;29632;49.168;9.848;2023-01-08T08:54:46;96007.03;;;11.48;50.93
40838;BME280;29632;49.168;9.848;2023-01-08T08:57:11;96002.94;;;11.53;50.69
40838;BME280;29632;49.168;9.848;2023-01-08T08:59:37;96001.44;;;11.59;50.68
40838;BME280;29632;49.168;9.848;2023-01-08T09:02:03;96003.56;;;11.64;50.69
40838;BME280;29632;49.168;9.848;2023-01-08T09:04:30;96002.56;;;11.65;50.73
40838;BME280;29632;49.168;9.848;2023-01-08T09:06:57;96004.19;;;11.66;50.43
40838;BME280;29632;49.168;9.848;2023-01-08T09:09:23;95999.00;;;11.66;50.46
40838;BME280;29632;49.168;9.848;2023-01-08T09:11:49;96005.66;;;11.68;50.53
40838;BME280;29632;49.168;9.848;2023-01-08T09:14:14;95997.81;;;11.68;50.63
40838;BME280;29632;49.168;9.848;2023-01-08T09:16:40;96005.00;;;11.66;50.62
40838;BME280;29632;49.168;9.848;2023-01-08T09:19:06;95993.13;;;11.64;51.04
40838;BME280;29632;49.168;9.848;2023-01-08T09:21:31;96005.50;;;11.62;51.07
40838;BME280;29632;49.168;9.848;2023-01-08T09:23:57;95997.69;;;11.62;50.97
40838;BME280;29632;49.168;9.848;2023-01-08T09:26:23;96003.38;;;11.65;50.82
40838;BME280;29632;49.168;9.848;2023-01-08T09:28:48;96000.44;;;11.68;51.00
40838;BME280;29632;49.168;9.848;2023-01-08T09:31:14;96001.06;;;11.70;50.82
40838;BME280;29632;49.168;9.848;2023-01-08T09:33:39;95998.47;;;11.70;50.74
40838;BME280;29632;49.168;9.848;2023-01-08T09:36:09;96005.94;;;11.74;50.90
40838;BME280;29632;49.168;9.848;2023-01-08T09:38:35;96002.84;;;11.78;50.72
40838;BME280;29632;49.168;9.848;2023-01-08T09:41:06;96010.13;;;11.83;50.67
40838;BME280;29632;49.168;9.848;2023-01-08T09:43:34;96007.19;;;11.86;50.84
40838;BME280;29632;49.168;9.848;2023-01-08T09:46:02;96010.63;;;11.86;50.80
40838;BME280;29632;49.168;9.848;2023-01-08T09:48:31;96003.44;;;11.88;50.77
40838;BME280;29632;49.168;9.848;2023-01-08T09:50:58;96000.50;;;11.92;50.76
40838;BME280;29632;49.168;9.848;2023-01-08T09:53:24;95997.09;;;11.91;50.73
40838;BME280;29632;49.168;9.848;2023-01-08T09:55:54;95994.50;;;11.91;50.69
40838;BME280;29632;49.168;9.848;2023-01-08T09:58:40;95994.78;;;11.96;50.61
40838;BME280;29632;49.168;9.848;2023-01-08T10:01:10;95982.22;;;12.00;50.78
40838;BME280;29632;49.168;9.848;2023-01-08T10:03:42;95982.50;;;12.05;50.48
40838;BME280;29632;49.168;9.848;2023-01-08T10:06:13;95973.34;;;12.09;50.66
40838;BME280;29632;49.168;9.848;2023-01-08T10:08:39;95980.34;;;12.08;50.59
40838;BME280;29632;49.168;9.848;2023-01-08T10:11:06;95983.59;;;12.11;50.38
40838;BME280;29632;49.168;9.848;2023-01-08T10:13:33;95978.84;;;12.14;50.43
40838;BME280;29632;49.168;9.848;2023-01-08T10:15:59;95978.22;;;12.12;50.43
40838;BME280;29632;49.168;9.848;2023-01-08T10:18:26;95976.94;;;12.08;50.43
40838;BME280;29632;49.168;9.848;2023-01-08T10:20:53;95977.28;;;12.05;50.57
40838;BME280;29632;49.168;9.848;2023-01-08T10:23:20;95968.19;;;12.01;50.91
40838;BME280;29632;49.168;9.848;2023-01-08T10:25:54;95967.56;;;11.99;50.77
40838;BME280;29632;49.168;9.848;2023-01-08T10:28:28;95964.09;;;11.98;51.06
40838;BME280;29632;49.168;9.848;2023-01-08T10:31:07;95964.75;;;12.00;50.56
40838;BME280;29632;49.168;9.848;2023-01-08T10:33:42;95958.09;;;11.98;50.88
40838;BME280;29632;49.168;9.848;2023-01-08T10:36:14;95956.09;;;12.00;50.73
40838;BME280;29632;49.168;9.848;2023-01-08T10:38:51;95963.31;;;11.98;50.82
40838;BME280;29632;49.168;9.848;2023-01-08T10:41:20;95958.25;;;11.96;50.95
40838;BME280;29632;49.168;9.848;2023-01-08T10:43:57;95959.88;;;11.97;50.70
40838;BME280;29632;49.168;9.848;2023-01-08T10:46:35;95960.69;;;11.98;50.65
40838;BME280;29632;49.168;9.848;2023-01-08T10:49:04;95951.44;;;11.95;50.86
40838;BME280;29632;49.168;9.848;2023-01-08T10:51:31;95943.59;;;11.95;50.89
40838;BME280;29632;49.168;9.848;2023-01-08T10:53:59;95946.69;;;11.99;51.00
40838;BME280;29632;49.168;9.848;2023-01-08T10:56:27;95949.28;;;11.99;51.05
40838;BME280;29632;49.168;9.848;2023-01-08T10:58:54;95949.44;;;11.97;51.08
40838;BME280;29632;49.168;9.848;2023-01-08T11:01:27;95939.00;;;11.97;50.86
40838;BME280;29632;49.168;9.848;2023-01-08T11:03:59;95945.84;;;11.98;51.02
40838;BME280;29632;49.168;9.848;2023-01-08T11:06:26;95934.59;;;11.98;51.26
40838;BME280;29632;49.168;9.848;2023-01-08T11:08:54;95931.19;;;11.97;51.06
40838;BME280;29632;49.168;9.848;2023-01-08T11:11:21;95931.81;;;11.99;51.04
40838;BME280;29632;49.168;9.848;2023-01-08T11:13:57;95924.00;;;11.99;51.29
40838;BME280;29632;49.168;9.848;2023-01-08T11:16:30;95916.97;;;12.00;51.29
40838;BME280;29632;49.168;9.848;2023-01-08T11:18:57;95916.97;;;12.00;51.14
40838;BME280;29632;49.168;9.848;2023-01-08T11:21:25;95917.59;;;12.02;51.10
40838;BME280;29632;49.168;9.848;2023-01-08T11:24:18;95927.69;;;12.05;50.98
40838;BME280;29632;49.168;9.848;2023-01-08T11:26:53;95913.69;;;12.06;51.22
40838;BME280;29632;49.168;9.848;2023-01-08T11:29:45;95914.31;;;12.08;51.35
40838;BME280;29632;49.168;9.848;2023-01-08T11:32:46;95917.56;;;12.10;51.06
40838;BME280;29632;49.168;9.848;2023-01-08T11:35:24;95908.75;;;12.11;51.18
40838;BME280;29632;49.168;9.848;2023-01-08T11:37:52;95921.63;;;12.13;51.08
40838;BME280;29632;49.168;9.848;2023-01-08T11:40:49;95897.13;;;12.14;50.95
40838;BME280;29632;49.168;9.848;2023-01-08T11:43:24;95900.84;;;12.19;51.01
40838;BME280;29632;49.168;9.848;2023-01-08T11:50:53;95889.41;;;12.20;50.93
40838;BME280;29632;49.168;9.848;2023-01-08T11:53:31;95877.00;;;12.22;51.11
40838;BME280;29632;49.168;9.848;2023-01-08T11:56:08;95879.25;;;12.25;50.97
40838;BME280;29632;49.168;9.848;2023-01-08T12:01:49;95876.09;;;12.30;51.10
40838;BME280;29632;49.168;9.848;2023-01-08T12:07:05;95848.03;;;12.32;51.37
40838;BME280;29632;49.168;9.848;2023-01-08T12:09:45;95845.59;;;12.31;50.93
40838;BME280;29632;49.168;9.848;2023-01-08T12:12:45;95848.22;;;12.31;51.29
40838;BME280;29632;49.168;9.848;2023-01-08T12:28:47;95827.44;;;12.37;51.05
40838;BME280;29632;49.168;9.848;2023-01-08T12:31:32;95830.03;;;12.37;50.98
40838;BME280;29632;49.168;9.848;2023-01-08T12:37:13;95835.91;;;12.39;51.16
40838;BME280;29632;49.168;9.848;2023-01-08T12:39:59;95820.50;;;12.44;51.21
40838;BME280;29632;49.168;9.848;2023-01-08T12:42:32;95823.41;;;12.50;50.94
40838;BME280;29632;49.168;9.848;2023-01-08T12:44:59;95817.78;;;12.53;51.19
40838;BME280;29632;49.168;9.848;2023-01-08T12:47:28;95811.22;;;12.57;51.31
40838;BME280;29632;49.168;9.848;2023-01-08T12:52:47;95809.88;;;12.61;50.75
40838;BME280;29632;49.168;9.848;2023-01-08T12:58:29;95802.66;;;12.63;51.00
40838;BME280;29632;49.168;9.848;2023-01-08T13:01:28;95807.88;;;12.63;50.95
40838;BME280;29632;49.168;9.848;2023-01-08T13:03:56;95809.34;;;12.65;51.16
40838;BME280;29632;49.168;9.848;2023-01-08T13:06:23;95804.13;;;12.65;50.91
40838;BME280;29632;49.168;9.848;2023-01-08T13:08:50;95799.69;;;12.66;50.94
40838;BME280;29632;49.168;9.848;2023-01-08T13:11:43;95792.13;;;12.71;51.28
40838;BME280;29632;49.168;9.848;2023-01-08T13:14:15;95799.44;;;12.76;50.84
40838;BME280;29632;49.168;9.848;2023-01-08T13:16:44;95795.28;;;12.81;51.03
40838;BME280;29632;49.168;9.848;2023-01-08T13:19:33;95804.00;;;12.89;50.67
40838;BME280;29632;49.168;9.848;2023-01-08T13:22:00;95795.25;;;12.96;50.98
40838;BME280;29632;49.168;9.848;2023-01-08T13:24:37;95795.06;;;12.98;50.98
40838;BME280;29632;49.168;9.848;2023-01-08T13:29:40;95776.78;;;12.98;51.09
40838;BME280;29632;49.168;9.848;2023-01-08T13:32:23;95775.97;;;12.97;50.90
40838;BME280;29632;49.168;9.848;2023-01-08T13:37:39;95759.56;;;13.03;50.87
40838;BME280;29632;49.168;9.848;2023-01-08T13:43:03;95756.75;;;13.05;50.94
40838;BME280;29632;49.168;9.848;2023-01-08T13:45:30;95756.19;;;13.10;50.70
40838;BME280;29632;49.168;9.848;2023-01-08T13:47:56;95761.44;;;13.10;50.74
40838;BME280;29632;49.168;9.848;2023-01-08T13:50:23;95757.66;;;13.12;50.88
40838;BME280;29632;49.168;9.848;2023-01-08T13:53:02;95763.69;;;13.13;50.73
40838;BME280;29632;49.168;9.848;2023-01-08T13:55:33;95764.66;;;13.12;51.02
40838;BME280;29632;49.168;9.848;2023-01-08T13:58:50;95762.22;;;13.10;50.72
40838;BME280;29632;49.168;9.848;2023-01-08T14:00:53;95761.78;;;13.07;50.87